createdAt,value
2022-12-24T00:23:15.899Z,1012.67
2022-12-24T00:51:20.959Z,1012.99
2022-12-24T01:19:53.544Z,1013.36
2022-12-24T01:49:37.890Z,1013.76
2022-12-24T02:18:12.267Z,1014.06
2022-12-24T02:46:33.239Z,1014.13
2022-12-24T03:15:33.658Z,1014.56
2022-12-24T03:43:44.350Z,1014.68
2022-12-24T04:41:25.775Z,1015.24
2022-12-24T05:09:44.482Z,1015.47
2022-12-24T05:38:31.586Z,1015.6
2022-12-24T06:07:14.641Z,1015.52
2022-12-24T06:36:19.023Z,1015.49
2022-12-24T07:33:11.708Z,1016.05
2022-12-24T08:02:05.471Z,1016.44
2022-12-24T08:30:31.160Z,1016.87
2022-12-24T08:59:01.365Z,1016.67
2022-12-24T09:27:36.066Z,1016.84
2022-12-24T09:56:07.257Z,1017.4
2022-12-24T10:24:33.600Z,1017.36
2022-12-24T10:53:01.401Z,1017.47
2022-12-24T11:21:36.938Z,1017.46
2022-12-24T11:50:18.359Z,1017.26
2022-12-24T12:18:20.226Z,1017.05
2022-12-24T12:46:41.469Z,1017.05
2022-12-24T13:15:01.423Z,1016.92
2022-12-24T13:43:40.763Z,1016.67
2022-12-24T14:12:33.175Z,1017.13
2022-12-24T14:41:18.653Z,1016.86
2022-12-24T15:09:20.285Z,1017.12
2022-12-24T15:37:38.593Z,1017.33
2022-12-24T16:06:16.842Z,1017.65
2022-12-24T16:34:48.598Z,1017.67
2022-12-24T17:03:28.846Z,1017.68
2022-12-24T17:32:07.700Z,1018.06
2022-12-24T18:00:34.165Z,1017.87
2022-12-24T18:29:11.871Z,1017.84
2022-12-24T18:58:22.697Z,1018.09
2022-12-24T19:26:24.308Z,1018.01
2022-12-24T19:55:09.765Z,1018.26
2022-12-24T20:24:02.805Z,1018.61
2022-12-24T20:52:19.995Z,1018.79
2022-12-24T21:49:34.868Z,1018.46
2022-12-24T22:19:48.829Z,1018.18
2022-12-24T22:47:56.214Z,1017.98
2022-12-24T23:16:49.609Z,1017.89
2022-12-24T23:47:13.316Z,1017.94
